Darstellungsparameter: Aktuell verwendete Einstellungen:
Skalierung der Graphiken ... ?
xyx+y,   Skalierungsfaktor:      Skalierung: Modus: x, Faktor: 1
Darstellungszeitraum ... ?
Vom - - bis: - -   Zeitraum: 10.01.2011 - 16.01.2011
Min/Max/Avg-Anzeige ... ?
Zeige MMA aktuell
Zeige MMA Monat
Zeige MMA alles
Zeige --A aktuell
Zeige --A Monat
Zeige --A alles
Keine MMA-Anzeige
MMA:
Keine MMA-Graphiken
MMA-Basis: 10.01.2011 - 16.01.2011
Quicknavigation für Darstellung... ?
Tage:      1T, 2T, 3T, 5T -1T -2T -3T -5T +1T +2T +3T +5T
Wochen: 1W, 2W, 3W -1W -2W -3W +1W +2W +3W
Monate: 1M, 3M, 6M -1M -3M -6M +1M +3M +6M
Jahre:    1J, 3J, 5J, 10J -1J -3J -5J -10J +1J +3J +5J +10J
Nutze für die Darstellung ... ?
Originaldaten oder Mittelwerte auf ...
Stundenbasis Tagesbasis Wochenbasis
Monatsbasis Jahresbasis      Datenbasis: Original-Daten
Darstellen als:
Statistik (Auto) Statistik J:M      Darstellung:
Zur Graphik,    zurück zur Übersicht aller Sensoren.
 
Tabellarische Datenbersicht: ?
 
Sensor: Nr:Datum:Temp:Abs-Feuchte:Windchill:Wind:
Aussen-T/F 1 10-01-2011 00:00:02 0.3 C 4.6 g/m*3 0.3 C 0 km/h
2 10-01-2011 00:12:02 0.6 C 4.7 g/m*3 0.6 C 0 km/h
3 10-01-2011 00:24:02 0.3 C 4.6 g/m*3 0.3 C 0 km/h
4 10-01-2011 00:36:02 -0.2 C 4.44 g/m*3 -0.2 C 0 km/h
5 10-01-2011 00:48:02 -0.2 C 4.44 g/m*3 -0.2 C 0 km/h
6 10-01-2011 01:00:02 0.2 C 4.57 g/m*3 0.2 C 0 km/h
7 10-01-2011 01:12:02 0.3 C 4.6 g/m*3 0.3 C 0 km/h
8 10-01-2011 01:24:02 0.4 C 4.63 g/m*3 0.4 C 0 km/h
9 10-01-2011 01:36:02 0.3 C 4.65 g/m*3 0.3 C 0 km/h
10 10-01-2011 01:48:02 0.2 C 4.62 g/m*3 0.2 C 0 km/h
11 10-01-2011 02:00:02 0.2 C 4.62 g/m*3 0.2 C 0 km/h
12 10-01-2011 02:12:02 0.1 C 4.54 g/m*3 0.1 C 0 km/h
13 10-01-2011 02:24:02 0 C 4.55 g/m*3 0 C 0 km/h
14 10-01-2011 02:36:03 -0.1 C 4.52 g/m*3 -0.1 C 0 km/h
15 10-01-2011 02:48:03 -0.1 C 4.52 g/m*3 -0.1 C 0 km/h
16 10-01-2011 03:00:03 0 C 4.55 g/m*3 0 C 0 km/h
17 10-01-2011 03:12:03 0.2 C 4.62 g/m*3 0.2 C 0 km/h
18 10-01-2011 03:24:03 0.3 C 4.65 g/m*3 0.3 C 0 km/h
19 10-01-2011 03:36:03 0.2 C 4.62 g/m*3 0.2 C 0 km/h
20 10-01-2011 03:48:03 0.3 C 4.65 g/m*3 0.3 C 0 km/h
21 10-01-2011 04:00:03 0.4 C 4.68 g/m*3 0.4 C 0 km/h
22 10-01-2011 04:12:03 0.4 C 4.68 g/m*3 0.4 C 0 km/h
23 10-01-2011 04:24:03 0.4 C 4.68 g/m*3 0.4 C 0 km/h
24 10-01-2011 04:36:03 0.4 C 4.68 g/m*3 0.4 C 0 km/h
25 10-01-2011 04:48:03 0.3 C 4.65 g/m*3 0.3 C 0 km/h
Sensor: Nr:Datum:Temp:Abs-Feuchte:Windchill:Wind:
Aussen-T/F 26 10-01-2011 05:00:03 0.3 C 4.65 g/m*3 0.3 C 0 km/h
27 10-01-2011 05:12:03 0.3 C 4.65 g/m*3 0.3 C 0 km/h
28 10-01-2011 05:24:03 0.2 C 4.62 g/m*3 0.2 C 0 km/h
29 10-01-2011 05:36:03 0.3 C 4.65 g/m*3 0.3 C 0 km/h
30 10-01-2011 05:48:03 0.2 C 4.57 g/m*3 0.2 C 0 km/h
31 10-01-2011 06:00:03 0.2 C 4.57 g/m*3 0.2 C 0 km/h
32 10-01-2011 06:12:03 0.2 C 4.57 g/m*3 0.2 C 0 km/h
33 10-01-2011 06:24:03 0.2 C 4.57 g/m*3 0.2 C 0 km/h
34 10-01-2011 06:36:04 0.2 C 4.57 g/m*3 0.2 C 0 km/h
35 10-01-2011 06:48:04 0.2 C 4.57 g/m*3 0.2 C 0 km/h
36 10-01-2011 07:00:04 0.2 C 4.57 g/m*3 0.2 C 0 km/h
37 10-01-2011 07:12:01 -0.1 C 4.47 g/m*3 -0.1 C 0 km/h
38 10-01-2011 07:24:02 0 C 4.51 g/m*3 0 C 0 km/h
39 10-01-2011 07:36:01 0.1 C 4.54 g/m*3 0.1 C 0 km/h
40 10-01-2011 07:48:02 0.3 C 4.6 g/m*3 0.3 C 0 km/h
41 10-01-2011 08:00:02 0.3 C 4.6 g/m*3 0.3 C 0 km/h
42 10-01-2011 08:12:01 0.2 C 4.52 g/m*3 0.2 C 0 km/h
43 10-01-2011 08:24:02 0.2 C 4.52 g/m*3 0.2 C 0 km/h
44 10-01-2011 08:36:01 0.1 C 4.44 g/m*3 0.1 C 0 km/h
45 10-01-2011 08:48:03 0.1 C 4.44 g/m*3 0.1 C 0 km/h
46 10-01-2011 09:00:03 0.2 C 4.47 g/m*3 0.2 C 0 km/h
47 10-01-2011 09:12:02 0.3 C 4.45 g/m*3 0.3 C 0 km/h
48 10-01-2011 09:24:02 0.4 C 4.48 g/m*3 0.4 C 0 km/h
49 10-01-2011 09:36:02 0.3 C 4.4 g/m*3 0.3 C 0 km/h
50 10-01-2011 09:48:02 0.4 C 4.43 g/m*3 0.4 C 0 km/h
Sensor: Nr:Datum:Temp:Abs-Feuchte:Windchill:Wind:
Aussen-T/F 51 10-01-2011 10:00:02 0.5 C 4.41 g/m*3 0.5 C 0 km/h
52 10-01-2011 10:12:02 0.2 C 4.27 g/m*3 0.2 C 0 km/h
53 10-01-2011 10:24:02 0.5 C 4.36 g/m*3 0.5 C 0 km/h
54 10-01-2011 10:36:02 0.7 C 4.37 g/m*3 0.7 C 0 km/h
55 10-01-2011 10:48:02 0.8 C 4.4 g/m*3 0.8 C 0 km/h
56 10-01-2011 11:00:02 1.1 C 4.39 g/m*3 1.1 C 0 km/h
57 10-01-2011 11:12:01 0.5 C 4.16 g/m*3 0.5 C 0 km/h
58 10-01-2011 11:24:01 0.8 C 4.2 g/m*3 0.8 C 0 km/h
59 10-01-2011 11:36:02 0.8 C 4.15 g/m*3 0.8 C 0 km/h
60 10-01-2011 11:48:02 1.2 C 4.21 g/m*3 1.2 C 0 km/h
61 10-01-2011 12:00:02 1.3 C 4.24 g/m*3 1.3 C 0 km/h
62 10-01-2011 12:12:02 1.7 C 4.3 g/m*3 1.7 C 0 km/h
63 10-01-2011 12:24:01 2.1 C 4.36 g/m*3 2.1 C 0 km/h
64 10-01-2011 12:36:02 2 C 4.33 g/m*3 2 C 0 km/h
65 10-01-2011 12:48:02 1.8 C 4.28 g/m*3 1.8 C 0 km/h
66 10-01-2011 13:00:02 2.1 C 4.36 g/m*3 2.1 C 0 km/h
67 10-01-2011 13:12:02 2 C 4.33 g/m*3 2 C 0 km/h
68 10-01-2011 13:24:01 2 C 4.39 g/m*3 2 C 0 km/h
69 10-01-2011 13:36:02 2.2 C 4.45 g/m*3 2.2 C 0 km/h
70 10-01-2011 13:48:02 2.2 C 4.39 g/m*3 2.2 C 0 km/h
71 10-01-2011 14:00:02 2.4 C 4.45 g/m*3 2.4 C 0 km/h
72 10-01-2011 14:12:02 2.5 C 4.48 g/m*3 2.5 C 0 km/h
73 10-01-2011 14:24:02 2.3 C 4.48 g/m*3 2.3 C 0 km/h
74 10-01-2011 14:36:02 2.1 C 4.36 g/m*3 2.1 C 0 km/h
75 10-01-2011 14:48:02 2 C 4.33 g/m*3 2 C 0 km/h
Sensor: Nr:Datum:Temp:Abs-Feuchte:Windchill:Wind:
Aussen-T/F 76 10-01-2011 15:00:02 2 C 4.33 g/m*3 2 C 0 km/h
77 10-01-2011 15:12:02 2.1 C 4.36 g/m*3 2.1 C 0 km/h
78 10-01-2011 15:24:02 2.1 C 4.36 g/m*3 2.1 C 0 km/h
79 10-01-2011 15:36:01 2.2 C 4.39 g/m*3 2.2 C 0 km/h
80 10-01-2011 15:48:02 2.1 C 4.36 g/m*3 2.1 C 0 km/h
81 10-01-2011 16:00:02 2.1 C 4.36 g/m*3 2.1 C 0 km/h
82 10-01-2011 16:12:01 2 C 4.33 g/m*3 2 C 0 km/h
83 10-01-2011 16:24:02 1.9 C 4.36 g/m*3 1.9 C 0 km/h
84 10-01-2011 16:36:02 1.8 C 4.33 g/m*3 1.8 C 0 km/h
85 10-01-2011 16:48:02 1.5 C 4.24 g/m*3 1.5 C 0 km/h
86 10-01-2011 17:00:02 1.2 C 4.21 g/m*3 1.2 C 0 km/h
87 10-01-2011 17:12:02 0.8 C 4.2 g/m*3 0.8 C 0 km/h
88 10-01-2011 17:24:02 0.7 C 4.22 g/m*3 0.7 C 0 km/h
89 10-01-2011 17:36:02 0.7 C 4.27 g/m*3 0.7 C 0 km/h
90 10-01-2011 17:48:02 0.8 C 4.3 g/m*3 0.8 C 0 km/h
91 10-01-2011 18:00:02 0.7 C 4.27 g/m*3 0.7 C 0 km/h
92 10-01-2011 18:12:01 0.4 C 4.18 g/m*3 0.4 C 0 km/h
93 10-01-2011 18:24:02 0.1 C 4.1 g/m*3 0.1 C 0 km/h
94 10-01-2011 18:36:02 -0.1 C 4.09 g/m*3 -0.1 C 0 km/h
95 10-01-2011 18:48:02 0 C 4.17 g/m*3 0 C 0 km/h
96 10-01-2011 19:00:02 0.1 C 4.24 g/m*3 0.1 C 0 km/h
97 10-01-2011 19:12:02 0.2 C 4.27 g/m*3 0.2 C 0 km/h
98 10-01-2011 19:24:02 0.2 C 4.32 g/m*3 0.2 C 0 km/h
99 10-01-2011 19:36:02 0.4 C 4.38 g/m*3 0.4 C 0 km/h
100 10-01-2011 19:48:02 0.4 C 4.38 g/m*3 0.4 C 0 km/h
Sensor: Nr:Datum:Temp:Abs-Feuchte:Windchill:Wind:
Aussen-T/F 101 10-01-2011 20:00:02 0.4 C 4.38 g/m*3 0.4 C 0 km/h
102 10-01-2011 20:12:02 0.6 C 4.39 g/m*3 0.6 C 0 km/h
103 10-01-2011 20:24:01 0.8 C 4.4 g/m*3 0.8 C 0 km/h
104 10-01-2011 20:36:02 0.8 C 4.3 g/m*3 0.8 C 0 km/h
105 10-01-2011 20:48:02 0.8 C 4.25 g/m*3 0.8 C 0 km/h
106 10-01-2011 21:00:02 0.7 C 4.12 g/m*3 0.7 C 0 km/h
107 10-01-2011 21:12:02 0.6 C 4.04 g/m*3 0.6 C 0 km/h
108 10-01-2011 21:24:01 0.5 C 4.01 g/m*3 0.5 C 0 km/h
109 10-01-2011 21:36:02 0.5 C 4.01 g/m*3 0.5 C 0 km/h
110 10-01-2011 21:48:02 0.5 C 4.01 g/m*3 0.5 C 0 km/h
111 10-01-2011 22:00:02 0.5 C 4.06 g/m*3 0.5 C 0 km/h
112 10-01-2011 22:12:02 0.5 C 4.06 g/m*3 0.5 C 0 km/h
113 10-01-2011 22:25:04 0.5 C 4.06 g/m*3 0.5 C 0 km/h
114 10-01-2011 22:37:04 0.5 C 4.06 g/m*3 0.5 C 0 km/h
115 10-01-2011 22:49:04 0.5 C 4.01 g/m*3 0.5 C 0 km/h
116 10-01-2011 23:01:04 0.5 C 4.01 g/m*3 0.5 C 0 km/h
117 10-01-2011 23:13:04 0.5 C 4.01 g/m*3 0.5 C 0 km/h
118 10-01-2011 23:25:04 0.5 C 4.01 g/m*3 0.5 C 0 km/h
119 10-01-2011 23:37:04 0.6 C 4.09 g/m*3 0.6 C 0 km/h
120 10-01-2011 23:49:04 0.6 C 4.09 g/m*3 0.6 C 0 km/h
121 11-01-2011 00:01:04 0.6 C 4.04 g/m*3 0.6 C 0 km/h
122 11-01-2011 00:13:05 0.5 C 3.96 g/m*3 0.5 C 0 km/h
123 11-01-2011 00:25:05 0.3 C 3.96 g/m*3 0.3 C 0 km/h
124 11-01-2011 00:37:05 -0.2 C 3.82 g/m*3 -0.2 C 0 km/h
125 11-01-2011 00:49:05 -0.4 C 3.86 g/m*3 -0.4 C 0 km/h
Sensor: Nr:Datum:Temp:Abs-Feuchte:Windchill:Wind:
Aussen-T/F 126 11-01-2011 01:01:05 -0.2 C 4.01 g/m*3 -0.2 C 0 km/h
127 11-01-2011 01:13:05 -0.1 C 4.04 g/m*3 -0.1 C 0 km/h
128 11-01-2011 01:25:05 -0.4 C 4.01 g/m*3 -0.4 C 0 km/h
129 11-01-2011 01:37:05 -0.1 C 4.14 g/m*3 -0.1 C 0 km/h
130 11-01-2011 01:49:05 0.2 C 4.22 g/m*3 0.2 C 0 km/h
131 11-01-2011 02:01:05 0.6 C 4.29 g/m*3 0.6 C 0 km/h
132 11-01-2011 02:13:05 0.7 C 4.22 g/m*3 0.7 C 0 km/h
133 11-01-2011 02:25:05 0.8 C 4.2 g/m*3 0.8 C 0 km/h
134 11-01-2011 02:37:05 1 C 4.1 g/m*3 1 C 0 km/h
135 11-01-2011 02:49:05 0.8 C 4.04 g/m*3 0.8 C 0 km/h
136 11-01-2011 03:01:05 0.8 C 4.04 g/m*3 0.8 C 0 km/h
137 11-01-2011 03:13:05 0.8 C 4.04 g/m*3 0.8 C 0 km/h
138 11-01-2011 03:25:05 0.6 C 4.04 g/m*3 0.6 C 0 km/h
139 11-01-2011 03:37:05 0.8 C 4.1 g/m*3 0.8 C 0 km/h
140 11-01-2011 03:49:05 0.6 C 4.04 g/m*3 0.6 C 0 km/h
141 11-01-2011 04:01:05 0.3 C 3.96 g/m*3 0.3 C 0 km/h
142 11-01-2011 04:13:06 0.2 C 3.98 g/m*3 0.2 C 0 km/h
143 11-01-2011 04:25:06 0.1 C 4 g/m*3 0.1 C 0 km/h
144 11-01-2011 04:37:06 0.6 C 4.14 g/m*3 0.6 C 0 km/h
145 11-01-2011 04:49:06 0.9 C 4.18 g/m*3 0.9 C 0 km/h
146 11-01-2011 05:01:06 1.1 C 4.13 g/m*3 1.1 C 0 km/h
147 11-01-2011 05:13:06 1.1 C 4.13 g/m*3 1.1 C 0 km/h
148 11-01-2011 05:25:06 1.1 C 4.13 g/m*3 1.1 C 0 km/h
149 11-01-2011 05:37:06 1.1 C 4.13 g/m*3 1.1 C 0 km/h
150 11-01-2011 05:49:06 1.1 C 4.13 g/m*3 1.1 C 0 km/h
Sensor: Nr:Datum:Temp:Abs-Feuchte:Windchill:Wind:
Aussen-T/F 151 11-01-2011 06:01:06 1.2 C 4.16 g/m*3 1.2 C 0 km/h
152 11-01-2011 06:13:06 1.2 C 4.16 g/m*3 1.2 C 0 km/h
153 11-01-2011 06:25:06 1.3 C 4.19 g/m*3 1.3 C 0 km/h
154 11-01-2011 06:37:06 1.3 C 4.24 g/m*3 1.3 C 0 km/h
155 11-01-2011 06:49:06 1.3 C 4.24 g/m*3 1.3 C 0 km/h
156 11-01-2011 07:01:06 1.4 C 4.27 g/m*3 1.4 C 0 km/h
157 11-01-2011 07:13:06 1.4 C 4.32 g/m*3 1.4 C 0 km/h
158 11-01-2011 07:25:03 1.4 C 4.32 g/m*3 1.4 C 0 km/h
159 11-01-2011 07:37:03 1.4 C 4.32 g/m*3 1.4 C 0 km/h
160 11-01-2011 07:49:02 1.5 C 4.4 g/m*3 1.5 C 0 km/h
161 11-01-2011 08:01:02 1.5 C 4.4 g/m*3 1.5 C 0 km/h
162 11-01-2011 08:13:02 1.5 C 4.4 g/m*3 1.5 C 0 km/h
163 11-01-2011 08:25:03 1.5 C 4.46 g/m*3 1.5 C 0 km/h
164 11-01-2011 08:37:02 1.5 C 4.46 g/m*3 1.5 C 0 km/h
165 11-01-2011 08:49:03 1.5 C 4.51 g/m*3 1.5 C 0 km/h
166 11-01-2011 09:01:02 1.6 C 4.54 g/m*3 1.6 C 0 km/h
167 11-01-2011 09:13:02 1.8 C 4.66 g/m*3 1.8 C 0 km/h
168 11-01-2011 09:25:02 2 C 4.67 g/m*3 2 C 0 km/h
169 11-01-2011 09:37:02 2.3 C 4.71 g/m*3 2.3 C 0 km/h
170 11-01-2011 09:49:02 2.6 C 4.75 g/m*3 2.6 C 0 km/h
171 11-01-2011 10:01:02 2.9 C 4.72 g/m*3 2.9 C 0 km/h
172 11-01-2011 10:13:02 3.2 C 4.7 g/m*3 3.2 C 0 km/h
173 11-01-2011 10:25:02 3.2 C 4.58 g/m*3 3.2 C 0 km/h
174 11-01-2011 10:37:02 3.2 C 4.58 g/m*3 3.2 C 0 km/h
175 11-01-2011 10:49:02 2.7 C 4.54 g/m*3 2.7 C 0 km/h
Sensor: Nr:Datum:Temp:Abs-Feuchte:Windchill:Wind:
Aussen-T/F 176 11-01-2011 11:01:02 2.5 C 4.6 g/m*3 2.5 C 0 km/h
177 11-01-2011 11:13:02 2.6 C 4.75 g/m*3 2.6 C 0 km/h
178 11-01-2011 11:25:02 2.8 C 4.87 g/m*3 2.8 C 0 km/h
179 11-01-2011 11:37:02 3.7 C 5.17 g/m*3 3.7 C 0 km/h
180 11-01-2011 11:49:02 4.8 C 5.1 g/m*3 4.8 C 0 km/h
181 11-01-2011 12:01:02 5.4 C 4.74 g/m*3 5.4 C 0 km/h
182 11-01-2011 12:13:02 5.7 C 4.63 g/m*3 5.7 C 0 km/h
183 11-01-2011 12:25:02 5.7 C 4.55 g/m*3 5.7 C 0 km/h
184 11-01-2011 12:37:01 5.6 C 4.6 g/m*3 5.6 C 0 km/h
185 11-01-2011 12:49:02 5.1 C 4.58 g/m*3 5.1 C 0 km/h
186 11-01-2011 13:01:01 5.2 C 4.75 g/m*3 5.2 C 0 km/h
187 11-01-2011 13:13:01 5.1 C 4.72 g/m*3 5.1 C 0 km/h
188 11-01-2011 13:25:01 5.3 C 4.71 g/m*3 5.3 C 0 km/h
189 11-01-2011 13:37:02 5.5 C 4.85 g/m*3 5.5 C 0 km/h
190 11-01-2011 13:49:02 5.4 C 4.74 g/m*3 5.4 C 0 km/h
191 11-01-2011 14:01:02 5.3 C 4.85 g/m*3 5.3 C 0 km/h
192 11-01-2011 14:13:02 5.3 C 4.92 g/m*3 5.3 C 0 km/h
193 11-01-2011 14:25:02 5.3 C 4.85 g/m*3 5.3 C 0 km/h
194 11-01-2011 14:37:02 5.3 C 4.92 g/m*3 5.3 C 0 km/h
195 11-01-2011 14:49:02 5.3 C 4.92 g/m*3 5.3 C 0 km/h
196 11-01-2011 15:01:02 5.3 C 5.06 g/m*3 5.3 C 0 km/h
197 11-01-2011 15:13:02 5.5 C 5.06 g/m*3 5.5 C 0 km/h
198 11-01-2011 15:25:02 5.6 C 5.02 g/m*3 5.6 C 0 km/h
199 11-01-2011 15:37:02 5.3 C 5.06 g/m*3 5.3 C 0 km/h
200 11-01-2011 15:49:01 5.1 C 5.13 g/m*3 5.1 C 0 km/h
Sensor: Nr:Datum:Temp:Abs-Feuchte:Windchill:Wind:
Aussen-T/F 201 11-01-2011 16:01:01 4.8 C 5.3 g/m*3 4.8 C 0 km/h
202 11-01-2011 16:13:01 4.6 C 5.43 g/m*3 4.6 C 0 km/h
203 11-01-2011 16:25:02 4.5 C 5.46 g/m*3 4.5 C 0 km/h
204 11-01-2011 16:37:01 4.5 C 5.46 g/m*3 4.5 C 0 km/h
205 11-01-2011 16:49:03 4.5 C 5.46 g/m*3 4.5 C 0 km/h
206 11-01-2011 17:01:02 4.7 C 5.53 g/m*3 4.7 C 0 km/h
207 11-01-2011 17:13:02 4.7 C 5.46 g/m*3 4.7 C 0 km/h
208 11-01-2011 17:25:02 5.2 C 5.44 g/m*3 5.2 C 0 km/h
209 11-01-2011 17:37:02 5.4 C 5.44 g/m*3 5.4 C 0 km/h
210 11-01-2011 17:49:02 5.5 C 5.41 g/m*3 5.5 C 0 km/h
211 11-01-2011 18:01:02 5.3 C 5.41 g/m*3 5.3 C 0 km/h
212 11-01-2011 18:13:02 5.3 C 5.48 g/m*3 5.3 C 0 km/h
213 11-01-2011 18:25:02 5.4 C 5.51 g/m*3 5.4 C 0 km/h
214 11-01-2011 18:37:02 5.6 C 5.59 g/m*3 5.6 C 0 km/h
215 11-01-2011 18:49:02 5.8 C 5.59 g/m*3 5.8 C 0 km/h
216 11-01-2011 19:01:01 6 C 5.52 g/m*3 6 C 0 km/h
217 11-01-2011 19:13:01 6 C 5.52 g/m*3 6 C 0 km/h
218 11-01-2011 19:25:01 6 C 5.59 g/m*3 6 C 0 km/h
219 11-01-2011 19:37:02 6 C 5.59 g/m*3 6 C 0 km/h
220 11-01-2011 19:49:02 5.9 C 5.62 g/m*3 5.9 C 0 km/h
221 11-01-2011 20:01:02 6 C 5.59 g/m*3 6 C 0 km/h
222 11-01-2011 20:13:02 6.1 C 5.63 g/m*3 6.1 C 0 km/h
223 11-01-2011 20:25:02 6.1 C 5.63 g/m*3 6.1 C 0 km/h
224 11-01-2011 20:37:02 6.2 C 5.59 g/m*3 6.2 C 0 km/h
225 11-01-2011 20:49:02 6.3 C 5.55 g/m*3 6.3 C 0 km/h
Sensor: Nr:Datum:Temp:Abs-Feuchte:Windchill:Wind:
Aussen-T/F 226 11-01-2011 21:01:02 6.3 C 5.63 g/m*3 6.3 C 0 km/h
227 11-01-2011 21:13:02 6.3 C 5.63 g/m*3 6.3 C 0 km/h
228 11-01-2011 21:25:02 6.1 C 5.63 g/m*3 6.1 C 0 km/h
229 11-01-2011 21:37:02 6.1 C 5.7 g/m*3 6.1 C 0 km/h
230 11-01-2011 21:50:03 6 C 5.73 g/m*3 6 C 0 km/h
231 11-01-2011 22:02:03 5.8 C 5.8 g/m*3 5.8 C 0 km/h
232 11-01-2011 22:14:03 5.9 C 5.91 g/m*3 5.9 C 0 km/h
233 11-01-2011 22:26:03 5.9 C 5.91 g/m*3 5.9 C 0 km/h
234 11-01-2011 22:38:03 6.3 C 6 g/m*3 6.3 C 0 km/h
235 11-01-2011 22:50:03 5.9 C 5.91 g/m*3 5.9 C 0 km/h
236 11-01-2011 23:02:03 5.9 C 6.06 g/m*3 5.9 C 0 km/h
237 11-01-2011 23:14:03 5.9 C 6.06 g/m*3 5.9 C 0 km/h
238 11-01-2011 23:26:03 6 C 6.02 g/m*3 6 C 0 km/h
239 11-01-2011 23:38:03 6.1 C 5.99 g/m*3 6.1 C 0 km/h
240 11-01-2011 23:50:03 6.1 C 5.92 g/m*3 6.1 C 0 km/h
241 12-01-2011 00:02:03 6.3 C 5.77 g/m*3 6.3 C 0 km/h
242 12-01-2011 00:14:03 6.5 C 5.62 g/m*3 6.5 C 0 km/h
243 12-01-2011 00:26:03 6.2 C 5.37 g/m*3 6.2 C 0 km/h
244 12-01-2011 00:38:03 5.9 C 5.26 g/m*3 5.9 C 0 km/h
245 12-01-2011 00:50:04 5.8 C 5.3 g/m*3 5.8 C 0 km/h
246 12-01-2011 01:02:04 5.9 C 5.34 g/m*3 5.9 C 0 km/h
247 12-01-2011 01:14:04 5.8 C 5.3 g/m*3 5.8 C 0 km/h
248 12-01-2011 01:26:04 6 C 5.23 g/m*3 6 C 0 km/h
249 12-01-2011 01:38:04 6 C 5.15 g/m*3 6 C 0 km/h
250 12-01-2011 01:50:04 6.1 C 5.11 g/m*3 6.1 C 0 km/h
Sensor: Nr:Datum:Temp:Abs-Feuchte:Windchill:Wind:
Aussen-T/F 251 12-01-2011 02:02:04 6 C 5.08 g/m*3 6 C 0 km/h
252 12-01-2011 02:14:04 6 C 5.08 g/m*3 6 C 0 km/h
253 12-01-2011 02:26:04 5.9 C 5.12 g/m*3 5.9 C 0 km/h
254 12-01-2011 02:38:04 5.9 C 5.05 g/m*3 5.9 C 0 km/h
255 12-01-2011 02:50:04 5.7 C 4.98 g/m*3 5.7 C 0 km/h
256 12-01-2011 03:02:04 5.5 C 4.99 g/m*3 5.5 C 0 km/h
257 12-01-2011 03:14:04 5 C 5.1 g/m*3 5 C 0 km/h
258 12-01-2011 03:26:04 4.9 C 5.27 g/m*3 4.9 C 0 km/h
259 12-01-2011 03:38:04 4.7 C 5.26 g/m*3 4.7 C 0 km/h
260 12-01-2011 03:50:04 4.5 C 5.26 g/m*3 4.5 C 0 km/h
261 12-01-2011 04:02:04 4.3 C 5.32 g/m*3 4.3 C 0 km/h
262 12-01-2011 04:14:04 4.3 C 5.32 g/m*3 4.3 C 0 km/h
263 12-01-2011 04:26:04 4.1 C 5.31 g/m*3 4.1 C 0 km/h
264 12-01-2011 04:38:04 3.9 C 5.37 g/m*3 3.9 C 0 km/h
265 12-01-2011 04:50:05 3.8 C 5.4 g/m*3 3.8 C 0 km/h
266 12-01-2011 05:02:05 3.8 C 5.33 g/m*3 3.8 C 0 km/h
267 12-01-2011 05:14:05 3.8 C 5.27 g/m*3 3.8 C 0 km/h
268 12-01-2011 05:26:05 3.7 C 5.23 g/m*3 3.7 C 0 km/h
269 12-01-2011 05:38:05 3.7 C 5.17 g/m*3 3.7 C 0 km/h
270 12-01-2011 05:50:05 3.8 C 5.21 g/m*3 3.8 C 0 km/h
271 12-01-2011 06:02:05 3.6 C 5.14 g/m*3 3.6 C 0 km/h
272 12-01-2011 06:14:05 3.5 C 5.16 g/m*3 3.5 C 0 km/h
273 12-01-2011 06:26:05 3.6 C 5.14 g/m*3 3.6 C 0 km/h
274 12-01-2011 06:38:05 3.6 C 5.14 g/m*3 3.6 C 0 km/h
275 12-01-2011 06:50:05 3.5 C 5.04 g/m*3 3.5 C 0 km/h
Sensor: Nr:Datum:Temp:Abs-Feuchte:Windchill:Wind:
Aussen-T/F 276 12-01-2011 07:02:02 3.5 C 5.04 g/m*3 3.5 C 0 km/h
277 12-01-2011 07:14:02 3.6 C 5.08 g/m*3 3.6 C 0 km/h
278 12-01-2011 07:26:02 3.3 C 4.97 g/m*3 3.3 C 0 km/h
279 12-01-2011 07:38:02 3.1 C 4.97 g/m*3 3.1 C 0 km/h
280 12-01-2011 07:50:01 3.1 C 5.03 g/m*3 3.1 C 0 km/h
281 12-01-2011 08:02:01 3 C 4.99 g/m*3 3 C 0 km/h
282 12-01-2011 08:14:01 2.8 C 4.93 g/m*3 2.8 C 0 km/h
283 12-01-2011 08:26:01 3.1 C 5.03 g/m*3 3.1 C 0 km/h
284 12-01-2011 08:38:01 3 C 4.99 g/m*3 3 C 0 km/h
285 12-01-2011 08:50:01 3 C 4.99 g/m*3 3 C 0 km/h
286 12-01-2011 09:02:01 3.5 C 5.16 g/m*3 3.5 C 0 km/h
287 12-01-2011 09:14:01 3.5 C 5.04 g/m*3 3.5 C 0 km/h
288 12-01-2011 09:26:02 3.7 C 5.11 g/m*3 3.7 C 0 km/h
289 12-01-2011 09:38:01 4 C 4.96 g/m*3 4 C 0 km/h
290 12-01-2011 09:50:02 4.5 C 4.93 g/m*3 4.5 C 0 km/h
291 12-01-2011 10:02:02 4.6 C 4.83 g/m*3 4.6 C 0 km/h
292 12-01-2011 10:14:02 4.7 C 4.93 g/m*3 4.7 C 0 km/h
293 12-01-2011 10:26:01 4.9 C 4.93 g/m*3 4.9 C 0 km/h
294 12-01-2011 10:38:02 4.9 C 4.86 g/m*3 4.9 C 0 km/h
295 12-01-2011 10:50:02 5 C 4.82 g/m*3 5 C 0 km/h
296 12-01-2011 11:02:02 5.1 C 4.86 g/m*3 5.1 C 0 km/h
297 12-01-2011 11:14:02 5.2 C 4.82 g/m*3 5.2 C 0 km/h
298 12-01-2011 11:26:01 5.4 C 4.81 g/m*3 5.4 C 0 km/h
299 12-01-2011 11:38:02 5.3 C 4.85 g/m*3 5.3 C 0 km/h
300 12-01-2011 11:50:01 5.3 C 4.92 g/m*3 5.3 C 0 km/h
Sensor: Nr:Datum:Temp:Abs-Feuchte:Windchill:Wind:
Aussen-T/F 301 12-01-2011 12:02:02 5.2 C 4.96 g/m*3 5.2 C 0 km/h
302 12-01-2011 12:14:02 5 C 5.03 g/m*3 5 C 0 km/h
303 12-01-2011 12:26:02 4.8 C 5.1 g/m*3 4.8 C 0 km/h
304 12-01-2011 12:38:02 4.7 C 5.13 g/m*3 4.7 C 0 km/h
305 12-01-2011 12:50:02 4.7 C 5.2 g/m*3 4.7 C 0 km/h
306 12-01-2011 13:02:02 4.7 C 5.2 g/m*3 4.7 C 0 km/h
307 12-01-2011 13:14:03 4.9 C 5.33 g/m*3 4.9 C 0 km/h
308 12-01-2011 13:26:01 5 C 5.37 g/m*3 5 C 0 km/h
309 12-01-2011 13:38:46 5 C 5.44 g/m*3 5 C 0 km/h
310 12-01-2011 13:50:02 4.9 C 5.54 g/m*3 4.9 C 0 km/h
311 12-01-2011 14:02:02 5 C 5.5 g/m*3 5 C 0 km/h
312 12-01-2011 14:14:02 5.1 C 5.47 g/m*3 5.1 C 0 km/h
313 12-01-2011 14:26:02 5.1 C 5.54 g/m*3 5.1 C 0 km/h
314 12-01-2011 14:38:02 5.1 C 5.54 g/m*3 5.1 C 0 km/h
315 12-01-2011 14:50:02 5.3 C 5.54 g/m*3 5.3 C 0 km/h
316 12-01-2011 15:02:01 5.6 C 5.51 g/m*3 5.6 C 0 km/h
317 12-01-2011 15:14:01 5.4 C 5.44 g/m*3 5.4 C 0 km/h
318 12-01-2011 15:26:02 5.2 C 5.44 g/m*3 5.2 C 0 km/h
319 12-01-2011 15:38:02 5.3 C 5.54 g/m*3 5.3 C 0 km/h
320 12-01-2011 15:50:02 5.6 C 5.59 g/m*3 5.6 C 0 km/h
321 12-01-2011 16:02:02 6 C 5.44 g/m*3 6 C 0 km/h
322 12-01-2011 16:14:02 5.9 C 5.48 g/m*3 5.9 C 0 km/h
323 12-01-2011 16:26:02 6 C 5.44 g/m*3 6 C 0 km/h
324 12-01-2011 16:38:02 6.1 C 5.48 g/m*3 6.1 C 0 km/h
325 12-01-2011 16:50:02 6.2 C 5.52 g/m*3 6.2 C 0 km/h
Sensor: Nr:Datum:Temp:Abs-Feuchte:Windchill:Wind:
Aussen-T/F 326 12-01-2011 17:02:02 6.2 C 5.52 g/m*3 6.2 C 0 km/h
327 12-01-2011 17:14:02 6.3 C 5.55 g/m*3 6.3 C 0 km/h
328 12-01-2011 17:26:02 6.4 C 5.59 g/m*3 6.4 C 0 km/h
329 12-01-2011 17:38:02 6 C 5.59 g/m*3 6 C 0 km/h
330 12-01-2011 17:50:01 6.1 C 5.77 g/m*3 6.1 C 0 km/h
331 12-01-2011 18:02:02 6.3 C 5.77 g/m*3 6.3 C 0 km/h
332 12-01-2011 18:14:02 6 C 5.81 g/m*3 6 C 0 km/h
333 12-01-2011 18:26:01 6 C 5.88 g/m*3 6 C 0 km/h
334 12-01-2011 18:38:01 6.2 C 6.03 g/m*3 6.2 C 0 km/h
335 12-01-2011 18:50:01 6.1 C 6.06 g/m*3 6.1 C 0 km/h
336 12-01-2011 19:02:01 6.1 C 6.06 g/m*3 6.1 C 0 km/h
337 12-01-2011 19:14:01 6 C 6.1 g/m*3 6 C 0 km/h
338 12-01-2011 19:26:02 6.3 C 6.22 g/m*3 6.3 C 0 km/h
339 12-01-2011 19:38:01 6.5 C 6.22 g/m*3 6.5 C 0 km/h
340 12-01-2011 19:50:02 6.6 C 6.27 g/m*3 6.6 C 0 km/h
341 12-01-2011 20:02:02 6.9 C 6.31 g/m*3 6.9 C 0 km/h
342 12-01-2011 20:14:02 6.8 C 6.27 g/m*3 6.8 C 0 km/h
343 12-01-2011 20:26:02 7 C 6.28 g/m*3 7 C 0 km/h
344 12-01-2011 20:38:02 7.1 C 6.24 g/m*3 7.1 C 0 km/h
345 12-01-2011 20:50:02 7.1 C 6.32 g/m*3 7.1 C 0 km/h
346 12-01-2011 21:02:01 7.1 C 6.4 g/m*3 7.1 C 0 km/h
347 12-01-2011 21:14:01 7.2 C 6.44 g/m*3 7.2 C 0 km/h
348 12-01-2011 21:26:02 7.5 C 6.64 g/m*3 7.5 C 0 km/h
349 12-01-2011 21:38:02 7.5 C 6.56 g/m*3 7.5 C 0 km/h
350 12-01-2011 21:50:02 7.4 C 6.52 g/m*3 7.4 C 0 km/h
Sensor: Nr:Datum:Temp:Abs-Feuchte:Windchill:Wind:
Aussen-T/F 351 12-01-2011 22:02:02 7.7 C 6.73 g/m*3 7.7 C 0 km/h
352 12-01-2011 22:14:02 7.7 C 6.65 g/m*3 7.7 C 0 km/h
353 12-01-2011 22:26:02 7.9 C 6.74 g/m*3 7.9 C 0 km/h
354 12-01-2011 22:38:02 8.2 C 6.7 g/m*3 8.2 C 0 km/h
355 12-01-2011 22:50:02 8.3 C 6.74 g/m*3 8.3 C 0 km/h
356 12-01-2011 23:02:02 8.5 C 6.74 g/m*3 8.5 C 0 km/h
357 12-01-2011 23:14:02 8.7 C 6.83 g/m*3 8.7 C 0 km/h
358 12-01-2011 23:26:01 8.8 C 6.88 g/m*3 8.8 C 0 km/h
359 12-01-2011 23:38:02 8.9 C 6.83 g/m*3 8.9 C 0 km/h
360 12-01-2011 23:50:02 8.9 C 6.83 g/m*3 8.9 C 0 km/h
361 13-01-2011 00:02:02 9 C 6.88 g/m*3 9 C 0 km/h
362 13-01-2011 00:14:02 9.3 C 6.92 g/m*3 9.3 C 0 km/h
363 13-01-2011 00:26:02 9.3 C 7.01 g/m*3 9.3 C 0 km/h
364 13-01-2011 00:38:02 9.4 C 7.05 g/m*3 9.4 C 0 km/h
365 13-01-2011 00:50:01 9.5 C 7.1 g/m*3 9.5 C 0 km/h
366 13-01-2011 01:02:02 9.7 C 7.19 g/m*3 9.7 C 0 km/h
367 13-01-2011 01:14:02 9.9 C 7.28 g/m*3 9.9 C 0 km/h
368 13-01-2011 01:26:02 10 C 7.24 g/m*3 10 C 0 km/h
369 13-01-2011 01:38:02 10.1 C 7.28 g/m*3 10.1 C 0 km/h
370 13-01-2011 01:50:02 10.2 C 7.33 g/m*3 10.2 C 0 km/h
371 13-01-2011 02:02:02 10.5 C 7.37 g/m*3 10.5 C 0 km/h
372 13-01-2011 02:14:02 10.7 C 7.56 g/m*3 10.7 C 0 km/h
373 13-01-2011 02:26:02 10.7 C 7.56 g/m*3 10.7 C 0 km/h
374 13-01-2011 02:38:01 10.7 C 7.66 g/m*3 10.7 C 0 km/h
375 13-01-2011 02:50:02 10.4 C 7.61 g/m*3 10.4 C 0 km/h
Sensor: Nr:Datum:Temp:Abs-Feuchte:Windchill:Wind:
Aussen-T/F 376 13-01-2011 03:02:02 10.4 C 7.71 g/m*3 10.4 C 0 km/h
377 13-01-2011 03:14:01 10.3 C 7.85 g/m*3 10.3 C 0 km/h
378 13-01-2011 03:26:01 10.3 C 7.85 g/m*3 10.3 C 0 km/h
379 13-01-2011 03:38:02 10.3 C 7.85 g/m*3 10.3 C 0 km/h
380 13-01-2011 03:50:02 10.3 C 7.95 g/m*3 10.3 C 0 km/h
381 13-01-2011 04:02:01 10.5 C 8.05 g/m*3 10.5 C 0 km/h
382 13-01-2011 04:14:01 10.6 C 8.1 g/m*3 10.6 C 0 km/h
383 13-01-2011 04:26:02 10.9 C 8.16 g/m*3 10.9 C 0 km/h
384 13-01-2011 04:38:01 10.7 C 7.96 g/m*3 10.7 C 0 km/h
385 13-01-2011 04:50:02 10.8 C 8.01 g/m*3 10.8 C 0 km/h
386 13-01-2011 05:02:01 11 C 8.01 g/m*3 11 C 0 km/h
387 13-01-2011 05:14:01 11.1 C 8.16 g/m*3 11.1 C 0 km/h
388 13-01-2011 05:26:01 10.7 C 8.05 g/m*3 10.7 C 0 km/h
389 13-01-2011 05:38:02 10.8 C 8.2 g/m*3 10.8 C 0 km/h
390 13-01-2011 05:50:01 10.6 C 8.2 g/m*3 10.6 C 0 km/h
391 13-01-2011 06:02:02 10.7 C 8.25 g/m*3 10.7 C 0 km/h
392 13-01-2011 06:14:02 10.5 C 8.24 g/m*3 10.5 C 0 km/h
393 13-01-2011 06:26:01 10.6 C 8.3 g/m*3 10.6 C 0 km/h
394 13-01-2011 06:38:02 10.6 C 8.39 g/m*3 10.6 C 0 km/h
395 13-01-2011 06:50:01 10.5 C 8.34 g/m*3 10.5 C 0 km/h
396 13-01-2011 07:02:01 10.6 C 8.39 g/m*3 10.6 C 0 km/h
397 13-01-2011 07:14:02 10.5 C 8.44 g/m*3 10.5 C 0 km/h
398 13-01-2011 07:26:01 10.7 C 8.55 g/m*3 10.7 C 0 km/h
399 13-01-2011 07:38:01 10.7 C 8.45 g/m*3 10.7 C 0 km/h
400 13-01-2011 07:50:01 10.8 C 8.5 g/m*3 10.8 C 0 km/h
Sensor: Nr:Datum:Temp:Abs-Feuchte:Windchill:Wind:
Aussen-T/F 401 13-01-2011 08:02:01 10.9 C 8.55 g/m*3 10.9 C 0 km/h
402 13-01-2011 08:14:01 10.8 C 8.5 g/m*3 10.8 C 0 km/h
403 13-01-2011 08:26:02 10.8 C 8.4 g/m*3 10.8 C 0 km/h
404 13-01-2011 08:38:01 10.8 C 8.4 g/m*3 10.8 C 0 km/h
405 13-01-2011 08:50:02 10.9 C 8.45 g/m*3 10.9 C 0 km/h
406 13-01-2011 09:02:01 10.9 C 8.45 g/m*3 10.9 C 0 km/h
407 13-01-2011 09:14:01 11.2 C 8.51 g/m*3 11.2 C 0 km/h
408 13-01-2011 09:26:02 11.4 C 8.52 g/m*3 11.4 C 0 km/h
409 13-01-2011 09:38:01 11.4 C 8.42 g/m*3 11.4 C 0 km/h
410 13-01-2011 09:50:02 11.4 C 8.31 g/m*3 11.4 C 0 km/h
411 13-01-2011 10:02:01 11.5 C 8.37 g/m*3 11.5 C 0 km/h
412 13-01-2011 10:14:01 11.9 C 8.47 g/m*3 11.9 C 0 km/h
413 13-01-2011 10:26:01 11.8 C 8.31 g/m*3 11.8 C 0 km/h
414 13-01-2011 10:38:02 12.2 C 8.2 g/m*3 12.2 C 0 km/h
415 13-01-2011 10:50:01 12.3 C 8.25 g/m*3 12.3 C 0 km/h
416 13-01-2011 11:02:02 12.5 C 8.36 g/m*3 12.5 C 0 km/h
417 13-01-2011 11:14:02 12.3 C 8.25 g/m*3 12.3 C 0 km/h
418 13-01-2011 11:26:01 12.6 C 8.19 g/m*3 12.6 C 0 km/h
419 13-01-2011 11:38:01 12.5 C 8.25 g/m*3 12.5 C 0 km/h
420 13-01-2011 11:50:01 12.7 C 8.24 g/m*3 12.7 C 0 km/h
421 13-01-2011 12:02:01 12.6 C 8.3 g/m*3 12.6 C 0 km/h
422 13-01-2011 12:14:02 12.5 C 8.25 g/m*3 12.5 C 0 km/h
423 13-01-2011 12:26:01 12.4 C 8.3 g/m*3 12.4 C 0 km/h
424 13-01-2011 12:38:01 12.4 C 8.41 g/m*3 12.4 C 0 km/h
425 13-01-2011 12:50:01 12.4 C 8.3 g/m*3 12.4 C 0 km/h
Sensor: Nr:Datum:Temp:Abs-Feuchte:Windchill:Wind:
Aussen-T/F 426 13-01-2011 13:02:01 12.2 C 8.42 g/m*3 12.2 C 0 km/h
427 13-01-2011 13:14:01 12.2 C 8.42 g/m*3 12.2 C 0 km/h
428 13-01-2011 13:26:02 12.7 C 8.46 g/m*3 12.7 C 0 km/h
429 13-01-2011 13:38:01 12.7 C 8.35 g/m*3 12.7 C 0 km/h
430 13-01-2011 13:50:02 12.9 C 8.34 g/m*3 12.9 C 0 km/h
431 13-01-2011 14:02:01 13 C 8.28 g/m*3 13 C 0 km/h
432 13-01-2011 14:14:01 13 C 8.28 g/m*3 13 C 0 km/h
433 13-01-2011 14:26:02 13.2 C 8.27 g/m*3 13.2 C 0 km/h
434 13-01-2011 14:38:01 13.4 C 8.37 g/m*3 13.4 C 0 km/h
435 13-01-2011 14:50:01 13.3 C 8.2 g/m*3 13.3 C 0 km/h
436 13-01-2011 15:02:01 13.1 C 8.22 g/m*3 13.1 C 0 km/h
437 13-01-2011 15:14:01 13.2 C 8.27 g/m*3 13.2 C 0 km/h
438 13-01-2011 15:26:01 13.1 C 8.22 g/m*3 13.1 C 0 km/h
439 13-01-2011 15:38:02 13 C 8.28 g/m*3 13 C 0 km/h
440 13-01-2011 15:50:01 12.9 C 8.34 g/m*3 12.9 C 0 km/h
441 13-01-2011 16:02:02 12.9 C 8.45 g/m*3 12.9 C 0 km/h
442 13-01-2011 16:14:02 12.9 C 8.45 g/m*3 12.9 C 0 km/h
443 13-01-2011 16:26:01 13 C 8.39 g/m*3 13 C 0 km/h
444 13-01-2011 16:38:01 12.8 C 8.51 g/m*3 12.8 C 0 km/h
445 13-01-2011 16:50:01 12.9 C 8.57 g/m*3 12.9 C 0 km/h
446 13-01-2011 17:02:01 12.8 C 8.51 g/m*3 12.8 C 0 km/h
447 13-01-2011 17:14:02 12.9 C 8.57 g/m*3 12.9 C 0 km/h
448 13-01-2011 17:26:01 12.7 C 8.46 g/m*3 12.7 C 0 km/h
449 13-01-2011 17:38:01 12.9 C 8.57 g/m*3 12.9 C 0 km/h
450 13-01-2011 17:50:01 13 C 8.39 g/m*3 13 C 0 km/h
Sensor: Nr:Datum:Temp:Abs-Feuchte:Windchill:Wind:
Aussen-T/F 451 13-01-2011 18:02:01 13 C 8.39 g/m*3 13 C 0 km/h
452 13-01-2011 18:14:01 12.9 C 8.45 g/m*3 12.9 C 0 km/h
453 13-01-2011 18:26:02 12.7 C 8.35 g/m*3 12.7 C 0 km/h
454 13-01-2011 18:38:01 12.8 C 8.51 g/m*3 12.8 C 0 km/h
455 13-01-2011 18:50:02 12.8 C 8.4 g/m*3 12.8 C 0 km/h
456 13-01-2011 19:02:01 12.9 C 8.57 g/m*3 12.9 C 0 km/h
457 13-01-2011 19:14:01 12.8 C 8.51 g/m*3 12.8 C 0 km/h
458 13-01-2011 19:26:02 12.8 C 8.51 g/m*3 12.8 C 0 km/h
459 13-01-2011 19:38:02 12.8 C 8.51 g/m*3 12.8 C 0 km/h
460 13-01-2011 19:50:01 12.8 C 8.4 g/m*3 12.8 C 0 km/h
461 13-01-2011 20:02:02 12.8 C 8.51 g/m*3 12.8 C 0 km/h
462 13-01-2011 20:14:02 12.7 C 8.46 g/m*3 12.7 C 0 km/h
463 13-01-2011 20:26:01 12.6 C 8.52 g/m*3 12.6 C 0 km/h
464 13-01-2011 20:38:01 12.7 C 8.57 g/m*3 12.7 C 0 km/h
465 13-01-2011 20:50:01 12.7 C 8.57 g/m*3 12.7 C 0 km/h
466 13-01-2011 21:02:01 12.7 C 8.46 g/m*3 12.7 C 0 km/h
467 13-01-2011 21:14:01 12.7 C 8.46 g/m*3 12.7 C 0 km/h
468 13-01-2011 21:26:01 12.8 C 8.51 g/m*3 12.8 C 0 km/h
469 13-01-2011 21:38:01 13 C 8.39 g/m*3 13 C 0 km/h
470 13-01-2011 21:50:01 12.9 C 8.45 g/m*3 12.9 C 0 km/h
471 13-01-2011 22:02:01 12.9 C 8.45 g/m*3 12.9 C 0 km/h
472 13-01-2011 22:14:01 12.8 C 8.4 g/m*3 12.8 C 0 km/h
473 13-01-2011 22:26:01 12.8 C 8.29 g/m*3 12.8 C 0 km/h
474 13-01-2011 22:38:02 12.8 C 8.29 g/m*3 12.8 C 0 km/h
475 13-01-2011 22:50:01 12.8 C 8.29 g/m*3 12.8 C 0 km/h
Sensor: Nr:Datum:Temp:Abs-Feuchte:Windchill:Wind:
Aussen-T/F 476 13-01-2011 23:02:02 12.9 C 8.34 g/m*3 12.9 C 0 km/h
477 13-01-2011 23:14:02 12.7 C 8.24 g/m*3 12.7 C 0 km/h
478 13-01-2011 23:26:01 12.7 C 8.24 g/m*3 12.7 C 0 km/h
479 13-01-2011 23:38:02 12.7 C 8.24 g/m*3 12.7 C 0 km/h
480 13-01-2011 23:50:01 12.7 C 8.24 g/m*3 12.7 C 0 km/h
481 14-01-2011 00:02:02 12.7 C 8.24 g/m*3 12.7 C 0 km/h
482 14-01-2011 00:14:02 12.5 C 8.14 g/m*3 12.5 C 0 km/h
483 14-01-2011 00:26:01 12.4 C 8.09 g/m*3 12.4 C 0 km/h
484 14-01-2011 00:38:02 12.5 C 8.14 g/m*3 12.5 C 0 km/h
485 14-01-2011 00:50:01 12.7 C 8.13 g/m*3 12.7 C 0 km/h
486 14-01-2011 01:02:02 12.5 C 8.14 g/m*3 12.5 C 0 km/h
487 14-01-2011 01:14:02 12.4 C 8.09 g/m*3 12.4 C 0 km/h
488 14-01-2011 01:26:01 12.5 C 8.14 g/m*3 12.5 C 0 km/h
489 14-01-2011 01:38:02 12.6 C 8.08 g/m*3 12.6 C 0 km/h
490 14-01-2011 01:50:01 12.5 C 8.03 g/m*3 12.5 C 0 km/h
491 14-01-2011 02:02:02 12.4 C 7.98 g/m*3 12.4 C 0 km/h
492 14-01-2011 02:14:02 12.3 C 7.93 g/m*3 12.3 C 0 km/h
493 14-01-2011 02:26:01 12.3 C 7.93 g/m*3 12.3 C 0 km/h
494 14-01-2011 02:38:01 12.3 C 7.93 g/m*3 12.3 C 0 km/h
495 14-01-2011 02:50:01 12.4 C 7.98 g/m*3 12.4 C 0 km/h
496 14-01-2011 03:02:01 12.2 C 7.88 g/m*3 12.2 C 0 km/h
497 14-01-2011 03:14:01 12.4 C 7.98 g/m*3 12.4 C 0 km/h
498 14-01-2011 03:26:02 12.2 C 7.77 g/m*3 12.2 C 0 km/h
499 14-01-2011 03:38:01 12.2 C 7.77 g/m*3 12.2 C 0 km/h
500 14-01-2011 03:50:01 12.2 C 7.77 g/m*3 12.2 C 0 km/h
Sensor: Nr:Datum:Temp:Abs-Feuchte:Windchill:Wind:
Aussen-T/F 501 14-01-2011 04:02:02 12.2 C 7.77 g/m*3 12.2 C 0 km/h
502 14-01-2011 04:14:02 12.2 C 7.88 g/m*3 12.2 C 0 km/h
503 14-01-2011 04:26:01 12.4 C 7.87 g/m*3 12.4 C 0 km/h
504 14-01-2011 04:38:01 12.2 C 7.77 g/m*3 12.2 C 0 km/h
505 14-01-2011 04:50:01 12.2 C 7.77 g/m*3 12.2 C 0 km/h
506 14-01-2011 05:02:01 12.1 C 7.83 g/m*3 12.1 C 0 km/h
507 14-01-2011 05:14:01 12.1 C 7.83 g/m*3 12.1 C 0 km/h
508 14-01-2011 05:26:01 12.3 C 7.82 g/m*3 12.3 C 0 km/h
509 14-01-2011 05:38:01 12.5 C 7.81 g/m*3 12.5 C 0 km/h
510 14-01-2011 05:50:01 12.3 C 7.71 g/m*3 12.3 C 0 km/h
511 14-01-2011 06:02:01 12.4 C 7.65 g/m*3 12.4 C 0 km/h
512 14-01-2011 06:14:01 12.6 C 7.63 g/m*3 12.6 C 0 km/h
513 14-01-2011 06:26:02 12.5 C 7.59 g/m*3 12.5 C 0 km/h
514 14-01-2011 06:38:01 12.7 C 7.57 g/m*3 12.7 C 0 km/h
515 14-01-2011 06:50:02 12.6 C 7.63 g/m*3 12.6 C 0 km/h
516 14-01-2011 07:02:01 12.3 C 7.6 g/m*3 12.3 C 0 km/h
517 14-01-2011 07:14:01 12.3 C 7.49 g/m*3 12.3 C 0 km/h
518 14-01-2011 07:26:02 12.4 C 7.43 g/m*3 12.4 C 0 km/h
519 14-01-2011 07:38:01 12.2 C 7.12 g/m*3 12.2 C 0 km/h
520 14-01-2011 07:50:01 12.3 C 7.17 g/m*3 12.3 C 0 km/h
521 14-01-2011 08:02:01 12.1 C 7.08 g/m*3 12.1 C 0 km/h
522 14-01-2011 08:14:01 12.2 C 7.01 g/m*3 12.2 C 0 km/h
523 14-01-2011 08:26:02 11.7 C 7.01 g/m*3 11.7 C 0 km/h
524 14-01-2011 08:38:01 11.2 C 6.89 g/m*3 11.2 C 0 km/h
525 14-01-2011 08:50:02 11.1 C 6.95 g/m*3 11.1 C 0 km/h
Sensor: Nr:Datum:Temp:Abs-Feuchte:Windchill:Wind:
Aussen-T/F 526 14-01-2011 09:02:01 11.2 C 6.99 g/m*3 11.2 C 0 km/h
527 14-01-2011 09:14:01 11.4 C 6.77 g/m*3 11.4 C 0 km/h
528 14-01-2011 09:26:01 11.6 C 6.86 g/m*3 11.6 C 0 km/h
529 14-01-2011 09:38:01 11.6 C 6.76 g/m*3 11.6 C 0 km/h
530 14-01-2011 09:50:01 11.5 C 6.82 g/m*3 11.5 C 0 km/h
531 14-01-2011 10:02:01 11.8 C 6.84 g/m*3 11.8 C 0 km/h
532 14-01-2011 10:14:01 11.9 C 6.78 g/m*3 11.9 C 0 km/h
533 14-01-2011 10:26:01 11.9 C 6.78 g/m*3 11.9 C 0 km/h
534 14-01-2011 10:38:02 11.3 C 6.53 g/m*3 11.3 C 0 km/h
535 14-01-2011 10:50:01 11.8 C 6.63 g/m*3 11.8 C 0 km/h
536 14-01-2011 11:02:02 12 C 6.61 g/m*3 12 C 0 km/h
537 14-01-2011 11:14:02 11.9 C 6.67 g/m*3 11.9 C 0 km/h
538 14-01-2011 11:26:01 12 C 6.61 g/m*3 12 C 0 km/h
539 14-01-2011 11:38:02 12 C 6.61 g/m*3 12 C 0 km/h
540 14-01-2011 11:50:01 12.2 C 6.58 g/m*3 12.2 C 0 km/h
541 14-01-2011 12:02:01 12 C 6.5 g/m*3 12 C 0 km/h
542 14-01-2011 12:14:02 12.2 C 6.58 g/m*3 12.2 C 0 km/h
543 14-01-2011 12:26:01 12.3 C 6.52 g/m*3 12.3 C 0 km/h
544 14-01-2011 12:38:01 12.2 C 6.58 g/m*3 12.2 C 0 km/h
545 14-01-2011 12:50:01 12 C 6.5 g/m*3 12 C 0 km/h
546 14-01-2011 13:02:01 12 C 6.61 g/m*3 12 C 0 km/h
547 14-01-2011 13:14:01 12 C 6.71 g/m*3 12 C 0 km/h
548 14-01-2011 13:26:02 12 C 6.61 g/m*3 12 C 0 km/h
549 14-01-2011 13:38:01 12 C 6.61 g/m*3 12 C 0 km/h
550 14-01-2011 13:50:02 12 C 6.61 g/m*3 12 C 0 km/h
Sensor: Nr:Datum:Temp:Abs-Feuchte:Windchill:Wind:
Aussen-T/F 551 14-01-2011 14:02:01 11.8 C 6.74 g/m*3 11.8 C 0 km/h
552 14-01-2011 14:14:01 11.7 C 6.8 g/m*3 11.7 C 0 km/h
553 14-01-2011 14:26:02 11.6 C 6.86 g/m*3 11.6 C 0 km/h
554 14-01-2011 14:38:01 11.5 C 6.82 g/m*3 11.5 C 0 km/h
555 14-01-2011 14:50:02 11.6 C 6.86 g/m*3 11.6 C 0 km/h
556 14-01-2011 15:02:01 11.8 C 6.74 g/m*3 11.8 C 0 km/h
557 14-01-2011 15:14:01 12 C 6.61 g/m*3 12 C 0 km/h
558 14-01-2011 15:26:01 12.2 C 6.47 g/m*3 12.2 C 0 km/h
559 14-01-2011 15:38:02 12.4 C 6.45 g/m*3 12.4 C 0 km/h
560 14-01-2011 15:50:01 12.2 C 6.47 g/m*3 12.2 C 0 km/h
561 14-01-2011 16:02:02 12.2 C 6.37 g/m*3 12.2 C 0 km/h
562 14-01-2011 16:14:02 12.1 C 6.43 g/m*3 12.1 C 0 km/h
563 14-01-2011 16:26:01 12 C 6.39 g/m*3 12 C 0 km/h
564 14-01-2011 16:38:01 11.9 C 6.46 g/m*3 11.9 C 0 km/h
565 14-01-2011 16:50:01 11.6 C 6.34 g/m*3 11.6 C 0 km/h
566 14-01-2011 17:02:01 11.6 C 6.34 g/m*3 11.6 C 0 km/h
567 14-01-2011 17:14:01 11.6 C 6.44 g/m*3 11.6 C 0 km/h
568 14-01-2011 17:26:01 11.5 C 6.3 g/m*3 11.5 C 0 km/h
569 14-01-2011 17:38:01 11.5 C 6.3 g/m*3 11.5 C 0 km/h
570 14-01-2011 17:50:01 11.4 C 6.26 g/m*3 11.4 C 0 km/h
571 14-01-2011 18:02:01 11.2 C 6.28 g/m*3 11.2 C 0 km/h
572 14-01-2011 18:14:01 11 C 6.31 g/m*3 11 C 0 km/h
573 14-01-2011 18:26:02 11.3 C 6.32 g/m*3 11.3 C 0 km/h
574 14-01-2011 18:38:01 10.8 C 6.33 g/m*3 10.8 C 0 km/h
575 14-01-2011 18:50:02 10.9 C 6.37 g/m*3 10.9 C 0 km/h
Sensor: Nr:Datum:Temp:Abs-Feuchte:Windchill:Wind:
Aussen-T/F 576 14-01-2011 19:02:01 10.8 C 6.33 g/m*3 10.8 C 0 km/h
577 14-01-2011 19:14:01 10.7 C 6.29 g/m*3 10.7 C 0 km/h
578 14-01-2011 19:26:01 11 C 6.21 g/m*3 11 C 0 km/h
579 14-01-2011 19:38:01 11.3 C 6.22 g/m*3 11.3 C 0 km/h
580 14-01-2011 19:50:01 11.9 C 6.14 g/m*3 11.9 C 0 km/h
581 14-01-2011 20:02:01 11.9 C 6.04 g/m*3 11.9 C 0 km/h
582 14-01-2011 20:14:01 11.8 C 6.1 g/m*3 11.8 C 0 km/h
583 14-01-2011 20:26:01 11.8 C 6.1 g/m*3 11.8 C 0 km/h
584 14-01-2011 20:38:02 11.5 C 6.09 g/m*3 11.5 C 0 km/h
585 14-01-2011 20:50:01 11.4 C 6.06 g/m*3 11.4 C 0 km/h
586 14-01-2011 21:02:02 11.4 C 6.06 g/m*3 11.4 C 0 km/h
587 14-01-2011 21:14:02 11.4 C 5.95 g/m*3 11.4 C 0 km/h
588 14-01-2011 21:26:01 11.4 C 6.06 g/m*3 11.4 C 0 km/h
589 14-01-2011 21:38:01 11.4 C 5.95 g/m*3 11.4 C 0 km/h
590 14-01-2011 21:50:01 11.4 C 6.06 g/m*3 11.4 C 0 km/h
591 14-01-2011 22:04:03 11.2 C 6.08 g/m*3 11.2 C 0 km/h
592 14-01-2011 22:16:03 11.1 C 6.14 g/m*3 11.1 C 0 km/h
593 14-01-2011 22:28:03 11.1 C 6.25 g/m*3 11.1 C 0 km/h
594 14-01-2011 22:40:03 10.6 C 6.34 g/m*3 10.6 C 0 km/h
595 14-01-2011 22:52:03 10.1 C 6.43 g/m*3 10.1 C 0 km/h
596 14-01-2011 23:04:03 10 C 6.58 g/m*3 10 C 0 km/h
597 14-01-2011 23:16:03 9.5 C 6.74 g/m*3 9.5 C 0 km/h
598 14-01-2011 23:28:03 9.1 C 6.92 g/m*3 9.1 C 0 km/h
599 14-01-2011 23:40:03 9.1 C 6.92 g/m*3 9.1 C 0 km/h
600 14-01-2011 23:52:03 8.5 C 6.66 g/m*3 8.5 C 0 km/h
Sensor: Nr:Datum:Temp:Abs-Feuchte:Windchill:Wind:
Aussen-T/F 601 15-01-2011 00:04:03 8.3 C 6.74 g/m*3 8.3 C 0 km/h
602 15-01-2011 00:16:03 8 C 6.7 g/m*3 8 C 0 km/h
603 15-01-2011 00:28:03 8.5 C 6.74 g/m*3 8.5 C 0 km/h
604 15-01-2011 00:40:03 8.1 C 6.49 g/m*3 8.1 C 0 km/h
605 15-01-2011 00:52:03 8.2 C 6.53 g/m*3 8.2 C 0 km/h
606 15-01-2011 01:04:03 8.1 C 6.49 g/m*3 8.1 C 0 km/h
607 15-01-2011 01:16:03 8.3 C 6.49 g/m*3 8.3 C 0 km/h
608 15-01-2011 01:28:03 8.5 C 6.32 g/m*3 8.5 C 0 km/h
609 15-01-2011 01:40:03 8.2 C 6.36 g/m*3 8.2 C 0 km/h
610 15-01-2011 01:52:03 8 C 6.37 g/m*3 8 C 0 km/h
611 15-01-2011 02:04:04 8.4 C 6.45 g/m*3 8.4 C 0 km/h
612 15-01-2011 02:16:04 8.3 C 6.41 g/m*3 8.3 C 0 km/h
613 15-01-2011 02:28:04 8.1 C 6.32 g/m*3 8.1 C 0 km/h
614 15-01-2011 02:40:04 7.6 C 6.36 g/m*3 7.6 C 0 km/h
615 15-01-2011 02:52:04 7.8 C 6.61 g/m*3 7.8 C 0 km/h
616 15-01-2011 03:04:04 8 C 6.45 g/m*3 8 C 0 km/h
617 15-01-2011 03:16:04 8.1 C 6.41 g/m*3 8.1 C 0 km/h
618 15-01-2011 03:28:04 8.4 C 6.62 g/m*3 8.4 C 0 km/h
619 15-01-2011 03:40:04 8.1 C 6.41 g/m*3 8.1 C 0 km/h
620 15-01-2011 03:52:04 8 C 6.45 g/m*3 8 C 0 km/h
621 15-01-2011 04:04:04 7.8 C 6.45 g/m*3 7.8 C 0 km/h
622 15-01-2011 04:16:04 8 C 6.53 g/m*3 8 C 0 km/h
623 15-01-2011 04:28:04 8.2 C 6.36 g/m*3 8.2 C 0 km/h
624 15-01-2011 04:40:04 8.7 C 6.4 g/m*3 8.7 C 0 km/h
625 15-01-2011 04:52:04 8.4 C 6.28 g/m*3 8.4 C 0 km/h
Sensor: Nr:Datum:Temp:Abs-Feuchte:Windchill:Wind:
Aussen-T/F 626 15-01-2011 05:04:04 8.3 C 6.15 g/m*3 8.3 C 0 km/h
627 15-01-2011 05:16:04 8.1 C 6.07 g/m*3 8.1 C 0 km/h
628 15-01-2011 05:28:04 7.7 C 6.24 g/m*3 7.7 C 0 km/h
629 15-01-2011 05:40:04 8 C 6.12 g/m*3 8 C 0 km/h
630 15-01-2011 05:52:04 7.7 C 6.08 g/m*3 7.7 C 0 km/h
631 15-01-2011 06:04:05 7.5 C 6.24 g/m*3 7.5 C 0 km/h
632 15-01-2011 06:16:05 6.9 C 6.24 g/m*3 6.9 C 0 km/h
633 15-01-2011 06:28:05 7.3 C 6.24 g/m*3 7.3 C 0 km/h
634 15-01-2011 06:40:05 7.6 C 6.2 g/m*3 7.6 C 0 km/h
635 15-01-2011 06:52:05 7.9 C 6.16 g/m*3 7.9 C 0 km/h
636 15-01-2011 07:04:05 7.1 C 6.01 g/m*3 7.1 C 0 km/h
637 15-01-2011 07:16:05 7.3 C 6.24 g/m*3 7.3 C 0 km/h
638 15-01-2011 07:28:05 7 C 6.2 g/m*3 7 C 0 km/h
639 15-01-2011 07:40:05 7 C 6.12 g/m*3 7 C 0 km/h
640 15-01-2011 07:52:05 7 C 6.12 g/m*3 7 C 0 km/h
641 15-01-2011 08:04:02 7 C 6.12 g/m*3 7 C 0 km/h
642 15-01-2011 08:16:03 7.1 C 6.08 g/m*3 7.1 C 0 km/h
643 15-01-2011 08:28:03 8 C 6.28 g/m*3 8 C 0 km/h
644 15-01-2011 08:40:02 8 C 6.04 g/m*3 8 C 0 km/h
645 15-01-2011 08:52:03 8.3 C 6.15 g/m*3 8.3 C 0 km/h
646 15-01-2011 09:04:02 8.2 C 5.95 g/m*3 8.2 C 0 km/h
647 15-01-2011 09:16:02 7.9 C 5.91 g/m*3 7.9 C 0 km/h
648 15-01-2011 09:28:02 8.2 C 6.03 g/m*3 8.2 C 0 km/h
649 15-01-2011 09:40:02 8.5 C 5.98 g/m*3 8.5 C 0 km/h
650 15-01-2011 09:52:02 8.7 C 6.05 g/m*3 8.7 C 0 km/h
Sensor: Nr:Datum:Temp:Abs-Feuchte:Windchill:Wind:
Aussen-T/F 651 15-01-2011 10:04:01 9.1 C 5.94 g/m*3 9.1 C 0 km/h
652 15-01-2011 10:16:02 8.9 C 5.96 g/m*3 8.9 C 0 km/h
653 15-01-2011 10:28:02 9 C 5.91 g/m*3 9 C 0 km/h
654 15-01-2011 10:40:02 9.1 C 5.86 g/m*3 9.1 C 0 km/h
655 15-01-2011 10:52:02 9.2 C 5.89 g/m*3 9.2 C 0 km/h
656 15-01-2011 11:04:02 9.4 C 5.97 g/m*3 9.4 C 0 km/h
657 15-01-2011 11:16:02 9.5 C 6.01 g/m*3 9.5 C 0 km/h
658 15-01-2011 11:28:02 10.1 C 5.96 g/m*3 10.1 C 0 km/h
659 15-01-2011 11:40:02 10.1 C 5.77 g/m*3 10.1 C 0 km/h
660 15-01-2011 11:52:02 10.2 C 5.71 g/m*3 10.2 C 0 km/h
661 15-01-2011 12:04:02 10.2 C 5.8 g/m*3 10.2 C 0 km/h
662 15-01-2011 12:16:03 10.2 C 5.71 g/m*3 10.2 C 0 km/h
663 15-01-2011 12:28:03 10.3 C 5.75 g/m*3 10.3 C 0 km/h
664 15-01-2011 12:40:02 10.2 C 5.71 g/m*3 10.2 C 0 km/h
665 15-01-2011 12:52:01 10.1 C 5.67 g/m*3 10.1 C 0 km/h
666 15-01-2011 13:04:01 10.1 C 5.58 g/m*3 10.1 C 0 km/h
667 15-01-2011 13:16:02 10 C 5.64 g/m*3 10 C 0 km/h
668 15-01-2011 13:28:02 10 C 5.54 g/m*3 10 C 0 km/h
669 15-01-2011 13:40:01 10 C 5.54 g/m*3 10 C 0 km/h
670 15-01-2011 13:52:01 10.1 C 5.58 g/m*3 10.1 C 0 km/h
671 15-01-2011 14:04:01 10.2 C 5.61 g/m*3 10.2 C 0 km/h
672 15-01-2011 14:16:02 10 C 5.54 g/m*3 10 C 0 km/h
673 15-01-2011 14:28:02 10 C 5.54 g/m*3 10 C 0 km/h
674 15-01-2011 14:40:01 10 C 5.54 g/m*3 10 C 0 km/h
675 15-01-2011 14:52:01 10 C 5.45 g/m*3 10 C 0 km/h
Sensor: Nr:Datum:Temp:Abs-Feuchte:Windchill:Wind:
Aussen-T/F 676 15-01-2011 15:04:01 9.9 C 5.42 g/m*3 9.9 C 0 km/h
677 15-01-2011 15:16:02 9.8 C 5.57 g/m*3 9.8 C 0 km/h
678 15-01-2011 15:28:02 9.6 C 5.5 g/m*3 9.6 C 0 km/h
679 15-01-2011 15:40:01 9.7 C 5.53 g/m*3 9.7 C 0 km/h
680 15-01-2011 15:52:02 9.1 C 5.59 g/m*3 9.1 C 0 km/h
681 15-01-2011 16:04:02 8.8 C 5.83 g/m*3 8.8 C 0 km/h
682 15-01-2011 16:16:03 8.7 C 5.71 g/m*3 8.7 C 0 km/h
683 15-01-2011 16:28:03 8.9 C 5.69 g/m*3 8.9 C 0 km/h
684 15-01-2011 16:40:02 8.9 C 5.69 g/m*3 8.9 C 0 km/h
685 15-01-2011 16:52:02 9.2 C 5.63 g/m*3 9.2 C 0 km/h
686 15-01-2011 17:04:01 8.7 C 5.79 g/m*3 8.7 C 0 km/h
687 15-01-2011 17:16:01 9.1 C 5.59 g/m*3 9.1 C 0 km/h
688 15-01-2011 17:28:01 9.2 C 5.54 g/m*3 9.2 C 0 km/h
689 15-01-2011 17:40:02 9 C 5.64 g/m*3 9 C 0 km/h
690 15-01-2011 17:52:03 9.1 C 5.68 g/m*3 9.1 C 0 km/h
691 15-01-2011 18:04:03 9.2 C 5.71 g/m*3 9.2 C 0 km/h
692 15-01-2011 18:16:01 9.1 C 5.68 g/m*3 9.1 C 0 km/h
693 15-01-2011 18:28:01 9 C 5.82 g/m*3 9 C 0 km/h
694 15-01-2011 18:40:02 9 C 5.82 g/m*3 9 C 0 km/h
695 15-01-2011 18:52:02 8.6 C 5.84 g/m*3 8.6 C 0 km/h
696 15-01-2011 19:04:02 9.1 C 5.77 g/m*3 9.1 C 0 km/h
697 15-01-2011 19:16:02 9.3 C 5.66 g/m*3 9.3 C 0 km/h
698 15-01-2011 19:28:02 9.1 C 5.59 g/m*3 9.1 C 0 km/h
699 15-01-2011 19:40:02 9.3 C 5.75 g/m*3 9.3 C 0 km/h
700 15-01-2011 19:52:01 9.1 C 5.68 g/m*3 9.1 C 0 km/h
Sensor: Nr:Datum:Temp:Abs-Feuchte:Windchill:Wind:
Aussen-T/F 701 15-01-2011 20:04:01 9.4 C 5.7 g/m*3 9.4 C 0 km/h
702 15-01-2011 20:16:02 9.1 C 5.59 g/m*3 9.1 C 0 km/h
703 15-01-2011 20:28:02 8.6 C 5.67 g/m*3 8.6 C 0 km/h
704 15-01-2011 20:40:01 8.9 C 5.69 g/m*3 8.9 C 0 km/h
705 15-01-2011 20:52:01 8.6 C 5.76 g/m*3 8.6 C 0 km/h
706 15-01-2011 21:04:01 8.2 C 5.53 g/m*3 8.2 C 0 km/h
707 15-01-2011 21:16:02 8.1 C 5.57 g/m*3 8.1 C 0 km/h
708 15-01-2011 21:28:02 8 C 5.54 g/m*3 8 C 0 km/h
709 15-01-2011 21:40:01 7.8 C 5.71 g/m*3 7.8 C 0 km/h
710 15-01-2011 21:52:01 8.1 C 5.74 g/m*3 8.1 C 0 km/h
711 15-01-2011 22:04:01 8.3 C 5.82 g/m*3 8.3 C 0 km/h
712 15-01-2011 22:16:02 8.5 C 5.98 g/m*3 8.5 C 0 km/h
713 15-01-2011 22:28:02 8.9 C 5.96 g/m*3 8.9 C 0 km/h
714 15-01-2011 22:41:03 8.6 C 5.84 g/m*3 8.6 C 0 km/h
715 15-01-2011 22:53:03 8.7 C 5.88 g/m*3 8.7 C 0 km/h
716 15-01-2011 23:05:03 8.5 C 5.89 g/m*3 8.5 C 0 km/h
717 15-01-2011 23:17:03 8.2 C 5.86 g/m*3 8.2 C 0 km/h
718 15-01-2011 23:29:03 8.7 C 5.88 g/m*3 8.7 C 0 km/h
719 15-01-2011 23:41:03 8.8 C 5.92 g/m*3 8.8 C 0 km/h
720 15-01-2011 23:53:03 8.9 C 5.87 g/m*3 8.9 C 0 km/h
721 16-01-2011 00:05:03 8.7 C 5.97 g/m*3 8.7 C 0 km/h
722 16-01-2011 00:17:03 8.8 C 5.92 g/m*3 8.8 C 0 km/h
723 16-01-2011 00:29:03 9 C 5.82 g/m*3 9 C 0 km/h
724 16-01-2011 00:41:03 9 C 5.73 g/m*3 9 C 0 km/h
725 16-01-2011 00:53:04 9 C 5.73 g/m*3 9 C 0 km/h
Sensor: Nr:Datum:Temp:Abs-Feuchte:Windchill:Wind:
Aussen-T/F 726 16-01-2011 01:05:04 8.5 C 5.64 g/m*3 8.5 C 0 km/h
727 16-01-2011 01:17:04 8.6 C 5.76 g/m*3 8.6 C 0 km/h
728 16-01-2011 01:29:04 8 C 5.7 g/m*3 8 C 0 km/h
729 16-01-2011 01:41:04 8 C 5.7 g/m*3 8 C 0 km/h
730 16-01-2011 01:53:04 8.1 C 5.66 g/m*3 8.1 C 0 km/h
731 16-01-2011 02:05:04 8.1 C 5.66 g/m*3 8.1 C 0 km/h
732 16-01-2011 02:17:04 7.8 C 5.71 g/m*3 7.8 C 0 km/h
733 16-01-2011 02:29:04 7.8 C 5.79 g/m*3 7.8 C 0 km/h
734 16-01-2011 02:41:04 7.8 C 5.88 g/m*3 7.8 C 0 km/h
735 16-01-2011 02:53:04 8.3 C 5.82 g/m*3 8.3 C 0 km/h
736 16-01-2011 03:05:04 8.4 C 5.77 g/m*3 8.4 C 0 km/h
737 16-01-2011 03:17:04 8.3 C 5.65 g/m*3 8.3 C 0 km/h
738 16-01-2011 03:29:04 8.2 C 5.69 g/m*3 8.2 C 0 km/h
739 16-01-2011 03:41:04 7.8 C 5.71 g/m*3 7.8 C 0 km/h
740 16-01-2011 03:53:04 8 C 5.7 g/m*3 8 C 0 km/h
741 16-01-2011 04:05:04 7.9 C 5.75 g/m*3 7.9 C 0 km/h
742 16-01-2011 04:17:04 8.2 C 5.78 g/m*3 8.2 C 0 km/h
743 16-01-2011 04:29:04 8.5 C 5.72 g/m*3 8.5 C 0 km/h
744 16-01-2011 04:41:04 8.4 C 5.77 g/m*3 8.4 C 0 km/h
745 16-01-2011 04:53:05 8.1 C 5.74 g/m*3 8.1 C 0 km/h
746 16-01-2011 05:05:05 7.9 C 5.83 g/m*3 7.9 C 0 km/h
747 16-01-2011 05:17:05 7.3 C 5.85 g/m*3 7.3 C 0 km/h
748 16-01-2011 05:29:05 6.8 C 5.97 g/m*3 6.8 C 0 km/h
749 16-01-2011 05:41:05 7 C 6.12 g/m*3 7 C 0 km/h
750 16-01-2011 05:53:05 6.8 C 6.12 g/m*3 6.8 C 0 km/h
Sensor: Nr:Datum:Temp:Abs-Feuchte:Windchill:Wind:
Aussen-T/F 751 16-01-2011 06:05:05 7 C 6.2 g/m*3 7 C 0 km/h
752 16-01-2011 06:17:05 7.1 C 6.16 g/m*3 7.1 C 0 km/h
753 16-01-2011 06:29:05 7.5 C 6.16 g/m*3 7.5 C 0 km/h
754 16-01-2011 06:41:05 7 C 5.89 g/m*3 7 C 0 km/h
755 16-01-2011 06:53:05 6.7 C 6 g/m*3 6.7 C 0 km/h
756 16-01-2011 07:05:05 7.5 C 6.16 g/m*3 7.5 C 0 km/h
757 16-01-2011 07:17:05 7.8 C 6.12 g/m*3 7.8 C 0 km/h
758 16-01-2011 07:29:05 7.9 C 6.08 g/m*3 7.9 C 0 km/h
759 16-01-2011 07:41:05 7.8 C 6.04 g/m*3 7.8 C 0 km/h
760 16-01-2011 07:53:05 8.4 C 5.94 g/m*3 8.4 C 0 km/h
761 16-01-2011 08:05:05 8.2 C 5.86 g/m*3 8.2 C 0 km/h
762 16-01-2011 08:17:05 8.3 C 5.9 g/m*3 8.3 C 0 km/h
763 16-01-2011 08:29:05 8.3 C 5.82 g/m*3 8.3 C 0 km/h
764 16-01-2011 08:41:05 8.1 C 5.82 g/m*3 8.1 C 0 km/h
765 16-01-2011 08:53:05 8.2 C 5.95 g/m*3 8.2 C 0 km/h
766 16-01-2011 09:05:02 8.3 C 5.98 g/m*3 8.3 C 0 km/h
767 16-01-2011 09:17:02 8 C 5.87 g/m*3 8 C 0 km/h
768 16-01-2011 09:29:02 8 C 5.87 g/m*3 8 C 0 km/h
769 16-01-2011 09:41:02 8 C 5.87 g/m*3 8 C 0 km/h
770 16-01-2011 09:53:01 7.9 C 5.91 g/m*3 7.9 C 0 km/h
771 16-01-2011 10:05:02 7.9 C 5.91 g/m*3 7.9 C 0 km/h
772 16-01-2011 10:17:01 7.9 C 5.91 g/m*3 7.9 C 0 km/h
773 16-01-2011 10:29:01 7.9 C 5.91 g/m*3 7.9 C 0 km/h
774 16-01-2011 10:41:01 8 C 5.95 g/m*3 8 C 0 km/h
775 16-01-2011 10:53:01 8.2 C 5.86 g/m*3 8.2 C 0 km/h
Sensor: Nr:Datum:Temp:Abs-Feuchte:Windchill:Wind:
Aussen-T/F 776 16-01-2011 11:05:02 8.1 C 5.91 g/m*3 8.1 C 0 km/h
777 16-01-2011 11:17:01 8.1 C 5.91 g/m*3 8.1 C 0 km/h
778 16-01-2011 11:29:01 8.3 C 5.98 g/m*3 8.3 C 0 km/h
779 16-01-2011 11:41:02 8.6 C 6.1 g/m*3 8.6 C 0 km/h
780 16-01-2011 11:53:01 8.7 C 6.05 g/m*3 8.7 C 0 km/h
781 16-01-2011 12:05:02 8.6 C 6.1 g/m*3 8.6 C 0 km/h
782 16-01-2011 12:17:01 8.6 C 6.19 g/m*3 8.6 C 0 km/h
783 16-01-2011 12:29:01 8.6 C 6.19 g/m*3 8.6 C 0 km/h
784 16-01-2011 12:41:02 8.7 C 6.14 g/m*3 8.7 C 0 km/h
785 16-01-2011 12:53:01 8.7 C 6.14 g/m*3 8.7 C 0 km/h
786 16-01-2011 13:05:02 8.9 C 6.22 g/m*3 8.9 C 0 km/h
787 16-01-2011 13:17:02 8.9 C 6.22 g/m*3 8.9 C 0 km/h
788 16-01-2011 13:29:02 8.8 C 6.18 g/m*3 8.8 C 0 km/h
789 16-01-2011 13:41:01 8.7 C 6.14 g/m*3 8.7 C 0 km/h
790 16-01-2011 13:53:02 8.8 C 6.18 g/m*3 8.8 C 0 km/h
791 16-01-2011 14:05:01 8.6 C 6.1 g/m*3 8.6 C 0 km/h
792 16-01-2011 14:17:02 7.8 C 6.04 g/m*3 7.8 C 0 km/h
793 16-01-2011 14:29:02 7.5 C 6.24 g/m*3 7.5 C 0 km/h
794 16-01-2011 14:41:01 8.7 C 6.57 g/m*3 8.7 C 0 km/h
795 16-01-2011 14:53:02 9.7 C 6.36 g/m*3 9.7 C 0 km/h
796 16-01-2011 15:05:01 9.9 C 6.26 g/m*3 9.9 C 0 km/h
797 16-01-2011 15:17:02 10 C 6.11 g/m*3 10 C 0 km/h
798 16-01-2011 15:29:02 10 C 6.11 g/m*3 10 C 0 km/h
799 16-01-2011 15:41:01 9.9 C 6.26 g/m*3 9.9 C 0 km/h
800 16-01-2011 15:53:02 9.8 C 6.4 g/m*3 9.8 C 0 km/h
Sensor: Nr:Datum:Temp:Abs-Feuchte:Windchill:Wind:
Aussen-T/F 801 16-01-2011 16:05:02 9.3 C 6.38 g/m*3 9.3 C 0 km/h
802 16-01-2011 16:17:02 8.7 C 6.4 g/m*3 8.7 C 0 km/h
803 16-01-2011 16:29:02 8 C 6.28 g/m*3 8 C 0 km/h
804 16-01-2011 16:41:02 7.4 C 6.36 g/m*3 7.4 C 0 km/h
805 16-01-2011 16:53:02 6.8 C 6.27 g/m*3 6.8 C 0 km/h
806 16-01-2011 17:05:01 6.3 C 6.14 g/m*3 6.3 C 0 km/h
807 16-01-2011 17:17:02 6.2 C 6.18 g/m*3 6.2 C 0 km/h
808 16-01-2011 17:29:02 6 C 6.17 g/m*3 6 C 0 km/h
809 16-01-2011 17:41:02 5.6 C 6.08 g/m*3 5.6 C 0 km/h
810 16-01-2011 17:53:02 5.5 C 6.11 g/m*3 5.5 C 0 km/h
811 16-01-2011 18:05:03 5.1 C 5.95 g/m*3 5.1 C 0 km/h
812 16-01-2011 18:17:02 5 C 5.91 g/m*3 5 C 0 km/h
813 16-01-2011 18:29:02 4.8 C 5.9 g/m*3 4.8 C 0 km/h
814 16-01-2011 18:41:02 4.7 C 5.93 g/m*3 4.7 C 0 km/h
815 16-01-2011 18:53:02 4.6 C 5.89 g/m*3 4.6 C 0 km/h
816 16-01-2011 19:05:01 4.5 C 5.85 g/m*3 4.5 C 0 km/h
817 16-01-2011 19:17:02 4.4 C 5.81 g/m*3 4.4 C 0 km/h
818 16-01-2011 19:29:03 4.4 C 5.81 g/m*3 4.4 C 0 km/h
819 16-01-2011 19:41:01 3.9 C 5.68 g/m*3 3.9 C 0 km/h
820 16-01-2011 19:53:02 3.9 C 5.68 g/m*3 3.9 C 0 km/h
821 16-01-2011 20:05:02 3.4 C 5.5 g/m*3 3.4 C 0 km/h
822 16-01-2011 20:17:02 3.7 C 5.61 g/m*3 3.7 C 0 km/h
823 16-01-2011 20:29:02 3.5 C 5.53 g/m*3 3.5 C 0 km/h
824 16-01-2011 20:41:03 2.9 C 5.37 g/m*3 2.9 C 0 km/h
825 16-01-2011 20:53:02 2.8 C 5.34 g/m*3 2.8 C 0 km/h
Sensor: Nr:Datum:Temp:Abs-Feuchte:Windchill:Wind:
Aussen-T/F 826 16-01-2011 21:05:01 2.7 C 5.3 g/m*3 2.7 C 0 km/h
827 16-01-2011 21:17:02 2.2 C 5.13 g/m*3 2.2 C 0 km/h
828 16-01-2011 21:29:02 2.7 C 5.3 g/m*3 2.7 C 0 km/h
829 16-01-2011 21:41:02 2.2 C 5.13 g/m*3 2.2 C 0 km/h
830 16-01-2011 21:53:02 2.2 C 5.13 g/m*3 2.2 C 0 km/h
831 16-01-2011 22:06:04 1.8 C 5.04 g/m*3 1.8 C 0 km/h
832 16-01-2011 22:18:04 2.8 C 5.4 g/m*3 2.8 C 0 km/h
833 16-01-2011 22:30:04 1.9 C 5.08 g/m*3 1.9 C 0 km/h
834 16-01-2011 22:42:04 2.1 C 5.09 g/m*3 2.1 C 0 km/h
835 16-01-2011 22:54:04 2.2 C 5.18 g/m*3 2.2 C 0 km/h
836 16-01-2011 23:06:04 2.1 C 5.15 g/m*3 2.1 C 0 km/h
837 16-01-2011 23:18:04 1.5 C 4.94 g/m*3 1.5 C 0 km/h
838 16-01-2011 23:30:04 1.5 C 4.94 g/m*3 1.5 C 0 km/h
839 16-01-2011 23:42:04 1.1 C 4.81 g/m*3 1.1 C 0 km/h
840 16-01-2011 23:54:04 0.6 C 4.65 g/m*3 0.6 C 0 km/h

Legende:
   Min
   Max


Maximal/Minimal-Werte vom 10.01.2011 - 16.01.2011

Sensor Min Max Avg
Temp
(Aussen-T/F)
-0.4 °C
11-01-2011  00:49:05
13.4 °C
13-01-2011  14:38:01
6.96 °C
Abs-Feuchte
(Aussen-T/F)
3.82 g/m*3
11-01-2011  00:37:05
8.57 g/m*3
13-01-2011  16:50:01
5.95 g/m*3
Windchill
(Aussen-T/F)
-0.4 C
11-01-2011  00:49:05
13.4 C
13-01-2011  14:38:01
6.95 C

Die Daten stammen von einer Davis Vantage Pro 2 Wetter-Station und werden unter Linux mit der Software wview2wettercgi und aufbereitet. Alle Angaben erfolgen ohne Gewähr für ihre Vollständigkeit oder Richtigkeit.
Kontakt: Rainer Krienke krienke@uni-koblenz.de . Meine Webseiten an der Uni Koblenz oder privat.
Version: $Revision: 0.78 $